Wicker Park, Illinois
Current Conditions -  °F | °C
As of 4:53 AM on Sunday 23 Nov 2014 (Local Time) from KMDW Reporting Station
Overcast Overcast  
Wind Chill: 51°   Ceiling: 6000
Heat Index: 51°   Visibility: 10mi
Dew Point: 44°   Wind: 12mph
Humidity: 77%   Direction: 190°S
Pressure: 29.77"   Gusts: NA
Location:  41.9022°N, 87.6726°W
Report Text: KMDW 231053Z 19010KT 10SM SCT031 BKN060 OVC300 11/07 A2977 RMK AO2 SLP082 T01060067
Loading
Personal Weather Stations






























Interactive Weather Map New forecast layout! Learn more

10-Day Weather Forecast

Advertisements
Track Severe Weather on mobile